sensor_id;sensor_type;location;lat;lon;timestamp;temperature;humidity
17813;DHT22;9030;50.792;8.320;2023-06-14T00:02:21;13.00;99.90
17813;DHT22;9030;50.792;8.320;2023-06-14T00:04:48;13.10;99.90
17813;DHT22;9030;50.792;8.320;2023-06-14T00:07:17;13.00;99.90
17813;DHT22;9030;50.792;8.320;2023-06-14T00:09:44;12.90;99.90
17813;DHT22;9030;50.792;8.320;2023-06-14T00:12:12;13.00;99.90
17813;DHT22;9030;50.792;8.320;2023-06-14T00:14:39;13.10;99.90
17813;DHT22;9030;50.792;8.320;2023-06-14T00:17:05;13.40;99.90
17813;DHT22;9030;50.792;8.320;2023-06-14T00:19:32;13.20;99.90
17813;DHT22;9030;50.792;8.320;2023-06-14T00:22:00;13.10;99.90
17813;DHT22;9030;50.792;8.320;2023-06-14T00:24:28;13.00;99.90
17813;DHT22;9030;50.792;8.320;2023-06-14T00:26:55;13.00;99.90
17813;DHT22;9030;50.792;8.320;2023-06-14T00:29:23;13.10;99.90
17813;DHT22;9030;50.792;8.320;2023-06-14T00:31:49;13.10;99.90
17813;DHT22;9030;50.792;8.320;2023-06-14T00:34:16;13.00;99.90
17813;DHT22;9030;50.792;8.320;2023-06-14T00:36:43;13.20;99.90
17813;DHT22;9030;50.792;8.320;2023-06-14T00:39:09;13.30;99.90
17813;DHT22;9030;50.792;8.320;2023-06-14T00:41:37;13.40;99.90
17813;DHT22;9030;50.792;8.320;2023-06-14T00:44:04;13.10;99.90
17813;DHT22;9030;50.792;8.320;2023-06-14T00:46:32;13.20;99.90
17813;DHT22;9030;50.792;8.320;2023-06-14T00:49:00;13.50;99.90
17813;DHT22;9030;50.792;8.320;2023-06-14T00:51:27;13.60;99.90
17813;DHT22;9030;50.792;8.320;2023-06-14T00:53:54;13.60;99.90
17813;DHT22;9030;50.792;8.320;2023-06-14T00:56:21;13.50;99.90
17813;DHT22;9030;50.792;8.320;2023-06-14T00:58:48;13.50;99.90
17813;DHT22;9030;50.792;8.320;2023-06-14T01:01:16;13.70;99.90
17813;DHT22;9030;50.792;8.320;2023-06-14T01:03:44;13.50;99.90
17813;DHT22;9030;50.792;8.320;2023-06-14T01:06:29;13.70;99.90
17813;DHT22;9030;50.792;8.320;2023-06-14T01:09:08;13.60;99.90
17813;DHT22;9030;50.792;8.320;2023-06-14T01:11:50;13.80;99.90
17813;DHT22;9030;50.792;8.320;2023-06-14T01:14:21;13.80;99.90
17813;DHT22;9030;50.792;8.320;2023-06-14T01:16:48;13.50;99.90
17813;DHT22;9030;50.792;8.320;2023-06-14T01:19:20;13.30;99.90
17813;DHT22;9030;50.792;8.320;2023-06-14T01:21:50;13.70;99.90
17813;DHT22;9030;50.792;8.320;2023-06-14T01:24:19;13.90;99.90
17813;DHT22;9030;50.792;8.320;2023-06-14T01:26:51;14.00;99.90
17813;DHT22;9030;50.792;8.320;2023-06-14T01:29:22;13.90;99.90
17813;DHT22;9030;50.792;8.320;2023-06-14T01:31:50;13.50;99.90
17813;DHT22;9030;50.792;8.320;2023-06-14T01:34:17;13.30;99.90
17813;DHT22;9030;50.792;8.320;2023-06-14T01:36:44;13.30;99.90
17813;DHT22;9030;50.792;8.320;2023-06-14T01:39:14;13.20;99.90
17813;DHT22;9030;50.792;8.320;2023-06-14T01:41:43;13.50;99.90
17813;DHT22;9030;50.792;8.320;2023-06-14T01:44:12;13.20;99.90
17813;DHT22;9030;50.792;8.320;2023-06-14T01:46:41;13.30;99.90
17813;DHT22;9030;50.792;8.320;2023-06-14T01:49:08;13.20;99.90
17813;DHT22;9030;50.792;8.320;2023-06-14T01:51:35;13.40;99.90
17813;DHT22;9030;50.792;8.320;2023-06-14T01:54:01;13.40;99.90
17813;DHT22;9030;50.792;8.320;2023-06-14T01:56:28;13.20;99.90
17813;DHT22;9030;50.792;8.320;2023-06-14T01:58:56;13.40;99.90
17813;DHT22;9030;50.792;8.320;2023-06-14T02:01:23;13.80;99.90
17813;DHT22;9030;50.792;8.320;2023-06-14T02:03:50;13.80;99.90
17813;DHT22;9030;50.792;8.320;2023-06-14T02:06:17;13.60;99.90
17813;DHT22;9030;50.792;8.320;2023-06-14T02:08:43;13.30;99.90
17813;DHT22;9030;50.792;8.320;2023-06-14T02:11:10;13.10;99.90
17813;DHT22;9030;50.792;8.320;2023-06-14T02:13:37;13.10;99.90
17813;DHT22;9030;50.792;8.320;2023-06-14T02:16:05;13.20;99.90
17813;DHT22;9030;50.792;8.320;2023-06-14T02:18:33;13.10;99.90
17813;DHT22;9030;50.792;8.320;2023-06-14T02:21:00;13.20;99.90
17813;DHT22;9030;50.792;8.320;2023-06-14T02:23:26;13.00;99.90
17813;DHT22;9030;50.792;8.320;2023-06-14T02:25:53;12.70;99.90
17813;DHT22;9030;50.792;8.320;2023-06-14T02:28:20;12.50;99.90
17813;DHT22;9030;50.792;8.320;2023-06-14T02:30:47;12.30;99.90
17813;DHT22;9030;50.792;8.320;2023-06-14T02:33:15;12.40;99.90
17813;DHT22;9030;50.792;8.320;2023-06-14T02:35:43;12.40;99.90
17813;DHT22;9030;50.792;8.320;2023-06-14T02:38:09;12.30;99.90
17813;DHT22;9030;50.792;8.320;2023-06-14T02:40:37;12.30;99.90
17813;DHT22;9030;50.792;8.320;2023-06-14T02:43:03;12.20;99.90
17813;DHT22;9030;50.792;8.320;2023-06-14T02:45:30;12.00;99.90
17813;DHT22;9030;50.792;8.320;2023-06-14T02:47:56;11.90;99.90
17813;DHT22;9030;50.792;8.320;2023-06-14T02:50:24;11.90;99.90
17813;DHT22;9030;50.792;8.320;2023-06-14T02:52:53;11.90;99.90
17813;DHT22;9030;50.792;8.320;2023-06-14T02:55:21;11.80;99.90
17813;DHT22;9030;50.792;8.320;2023-06-14T02:57:47;11.80;99.90
17813;DHT22;9030;50.792;8.320;2023-06-14T03:00:15;11.80;99.90
17813;DHT22;9030;50.792;8.320;2023-06-14T03:02:42;11.90;99.90
17813;DHT22;9030;50.792;8.320;2023-06-14T03:05:09;11.70;99.90
17813;DHT22;9030;50.792;8.320;2023-06-14T03:07:37;11.60;99.90
17813;DHT22;9030;50.792;8.320;2023-06-14T03:10:07;11.50;99.90
17813;DHT22;9030;50.792;8.320;2023-06-14T03:12:34;11.40;99.90
17813;DHT22;9030;50.792;8.320;2023-06-14T03:15:02;11.40;99.90
17813;DHT22;9030;50.792;8.320;2023-06-14T03:17:29;11.30;99.90
17813;DHT22;9030;50.792;8.320;2023-06-14T03:19:58;11.30;99.90
17813;DHT22;9030;50.792;8.320;2023-06-14T03:22:25;11.30;99.90
17813;DHT22;9030;50.792;8.320;2023-06-14T03:24:53;11.30;99.90
17813;DHT22;9030;50.792;8.320;2023-06-14T03:27:20;11.30;99.90
17813;DHT22;9030;50.792;8.320;2023-06-14T03:29:47;11.30;99.90
17813;DHT22;9030;50.792;8.320;2023-06-14T03:32:13;11.30;99.90
17813;DHT22;9030;50.792;8.320;2023-06-14T03:34:40;11.20;99.90
17813;DHT22;9030;50.792;8.320;2023-06-14T03:37:06;11.20;99.90
17813;DHT22;9030;50.792;8.320;2023-06-14T03:39:33;11.20;99.90
17813;DHT22;9030;50.792;8.320;2023-06-14T03:42:01;11.20;99.90
17813;DHT22;9030;50.792;8.320;2023-06-14T03:44:28;11.30;99.90
17813;DHT22;9030;50.792;8.320;2023-06-14T03:46:54;11.40;99.90
17813;DHT22;9030;50.792;8.320;2023-06-14T03:49:21;11.50;99.90
17813;DHT22;9030;50.792;8.320;2023-06-14T03:51:48;11.50;99.90
17813;DHT22;9030;50.792;8.320;2023-06-14T03:54:16;11.50;99.90
17813;DHT22;9030;50.792;8.320;2023-06-14T03:56:43;11.40;99.90
17813;DHT22;9030;50.792;8.320;2023-06-14T03:59:12;11.40;99.90
17813;DHT22;9030;50.792;8.320;2023-06-14T04:01:39;11.40;99.90
17813;DHT22;9030;50.792;8.320;2023-06-14T04:04:11;11.50;99.90
17813;DHT22;9030;50.792;8.320;2023-06-14T04:06:38;11.50;99.90
17813;DHT22;9030;50.792;8.320;2023-06-14T04:09:05;11.40;99.90
17813;DHT22;9030;50.792;8.320;2023-06-14T04:11:32;11.40;99.90
17813;DHT22;9030;50.792;8.320;2023-06-14T04:13:59;11.40;99.90
17813;DHT22;9030;50.792;8.320;2023-06-14T04:16:28;11.70;99.90
17813;DHT22;9030;50.792;8.320;2023-06-14T04:18:55;11.80;99.90
17813;DHT22;9030;50.792;8.320;2023-06-14T04:21:23;11.80;99.90
17813;DHT22;9030;50.792;8.320;2023-06-14T04:23:51;11.80;99.90
17813;DHT22;9030;50.792;8.320;2023-06-14T04:26:20;11.80;99.90
17813;DHT22;9030;50.792;8.320;2023-06-14T04:28:49;11.70;99.90
17813;DHT22;9030;50.792;8.320;2023-06-14T04:31:16;11.80;99.90
17813;DHT22;9030;50.792;8.320;2023-06-14T04:33:44;11.90;99.90
17813;DHT22;9030;50.792;8.320;2023-06-14T04:36:12;12.00;99.90
17813;DHT22;9030;50.792;8.320;2023-06-14T04:38:39;12.10;99.90
17813;DHT22;9030;50.792;8.320;2023-06-14T04:41:06;12.30;99.90
17813;DHT22;9030;50.792;8.320;2023-06-14T04:43:37;12.40;99.90
17813;DHT22;9030;50.792;8.320;2023-06-14T04:46:04;12.50;99.90
17813;DHT22;9030;50.792;8.320;2023-06-14T04:48:36;12.80;99.90
17813;DHT22;9030;50.792;8.320;2023-06-14T04:51:06;13.20;99.90
17813;DHT22;9030;50.792;8.320;2023-06-14T04:53:32;13.50;99.90
17813;DHT22;9030;50.792;8.320;2023-06-14T04:55:59;13.10;99.90
17813;DHT22;9030;50.792;8.320;2023-06-14T04:58:26;13.20;99.90
17813;DHT22;9030;50.792;8.320;2023-06-14T05:00:54;13.40;99.90
17813;DHT22;9030;50.792;8.320;2023-06-14T05:03:21;13.40;99.90
17813;DHT22;9030;50.792;8.320;2023-06-14T05:05:49;13.70;99.90
17813;DHT22;9030;50.792;8.320;2023-06-14T05:08:17;13.90;99.90
17813;DHT22;9030;50.792;8.320;2023-06-14T05:10:43;14.00;99.90
17813;DHT22;9030;50.792;8.320;2023-06-14T05:13:10;14.00;99.90
17813;DHT22;9030;50.792;8.320;2023-06-14T05:15:37;14.60;99.90
17813;DHT22;9030;50.792;8.320;2023-06-14T05:18:03;14.80;99.90
17813;DHT22;9030;50.792;8.320;2023-06-14T05:20:30;15.00;99.90
17813;DHT22;9030;50.792;8.320;2023-06-14T05:22:57;15.00;99.90
17813;DHT22;9030;50.792;8.320;2023-06-14T05:25:25;15.10;99.90
17813;DHT22;9030;50.792;8.320;2023-06-14T05:27:53;15.50;99.90
17813;DHT22;9030;50.792;8.320;2023-06-14T05:30:20;15.60;99.90
17813;DHT22;9030;50.792;8.320;2023-06-14T05:32:46;15.70;99.90
17813;DHT22;9030;50.792;8.320;2023-06-14T05:35:13;15.70;99.90
17813;DHT22;9030;50.792;8.320;2023-06-14T05:37:40;16.00;99.90
17813;DHT22;9030;50.792;8.320;2023-06-14T05:40:07;16.40;99.90
17813;DHT22;9030;50.792;8.320;2023-06-14T05:42:36;16.50;99.90
17813;DHT22;9030;50.792;8.320;2023-06-14T05:45:03;16.70;99.90
17813;DHT22;9030;50.792;8.320;2023-06-14T05:47:31;16.70;99.90
17813;DHT22;9030;50.792;8.320;2023-06-14T05:49:58;16.80;99.90
17813;DHT22;9030;50.792;8.320;2023-06-14T05:52:24;16.80;99.90
17813;DHT22;9030;50.792;8.320;2023-06-14T05:54:51;17.00;99.90
17813;DHT22;9030;50.792;8.320;2023-06-14T05:57:18;16.70;99.90
17813;DHT22;9030;50.792;8.320;2023-06-14T05:59:46;16.70;99.90
17813;DHT22;9030;50.792;8.320;2023-06-14T06:02:13;16.80;99.90
17813;DHT22;9030;50.792;8.320;2023-06-14T06:04:39;16.90;99.90
17813;DHT22;9030;50.792;8.320;2023-06-14T06:07:06;17.00;99.90
17813;DHT22;9030;50.792;8.320;2023-06-14T06:09:33;17.00;99.90
17813;DHT22;9030;50.792;8.320;2023-06-14T06:12:00;17.00;99.90
17813;DHT22;9030;50.792;8.320;2023-06-14T06:14:26;17.40;99.90
17813;DHT22;9030;50.792;8.320;2023-06-14T06:16:55;17.30;99.90
17813;DHT22;9030;50.792;8.320;2023-06-14T06:19:21;17.40;99.90
17813;DHT22;9030;50.792;8.320;2023-06-14T06:21:48;17.60;99.90
17813;DHT22;9030;50.792;8.320;2023-06-14T06:24:15;17.40;99.90
17813;DHT22;9030;50.792;8.320;2023-06-14T06:26:41;17.70;99.90
17813;DHT22;9030;50.792;8.320;2023-06-14T06:29:08;17.60;99.90
17813;DHT22;9030;50.792;8.320;2023-06-14T06:31:35;17.60;99.90
17813;DHT22;9030;50.792;8.320;2023-06-14T06:34:03;17.70;99.90
17813;DHT22;9030;50.792;8.320;2023-06-14T06:36:30;17.60;99.90
17813;DHT22;9030;50.792;8.320;2023-06-14T06:38:56;17.90;99.90
17813;DHT22;9030;50.792;8.320;2023-06-14T06:41:23;18.00;99.90
17813;DHT22;9030;50.792;8.320;2023-06-14T06:43:50;18.00;99.90
17813;DHT22;9030;50.792;8.320;2023-06-14T06:46:16;18.10;99.90
17813;DHT22;9030;50.792;8.320;2023-06-14T06:48:44;18.10;99.90
17813;DHT22;9030;50.792;8.320;2023-06-14T06:51:12;18.40;99.90
17813;DHT22;9030;50.792;8.320;2023-06-14T06:53:41;18.50;99.90
17813;DHT22;9030;50.792;8.320;2023-06-14T06:56:08;18.50;99.90
17813;DHT22;9030;50.792;8.320;2023-06-14T06:58:35;18.10;99.90
17813;DHT22;9030;50.792;8.320;2023-06-14T07:01:01;17.90;99.90
17813;DHT22;9030;50.792;8.320;2023-06-14T07:03:28;18.50;99.90
17813;DHT22;9030;50.792;8.320;2023-06-14T07:05:55;18.70;99.90
17813;DHT22;9030;50.792;8.320;2023-06-14T07:08:23;18.80;99.90
17813;DHT22;9030;50.792;8.320;2023-06-14T07:10:50;18.50;99.90
17813;DHT22;9030;50.792;8.320;2023-06-14T07:13:16;18.70;99.90
17813;DHT22;9030;50.792;8.320;2023-06-14T07:15:43;18.90;99.90
17813;DHT22;9030;50.792;8.320;2023-06-14T07:18:10;18.80;99.90
17813;DHT22;9030;50.792;8.320;2023-06-14T07:20:37;19.00;99.90
17813;DHT22;9030;50.792;8.320;2023-06-14T07:23:05;19.00;99.90
17813;DHT22;9030;50.792;8.320;2023-06-14T07:25:33;18.80;99.90
17813;DHT22;9030;50.792;8.320;2023-06-14T07:28:00;19.00;99.90
17813;DHT22;9030;50.792;8.320;2023-06-14T07:30:27;19.20;99.90
17813;DHT22;9030;50.792;8.320;2023-06-14T07:32:55;19.10;99.90
17813;DHT22;9030;50.792;8.320;2023-06-14T07:35:22;18.60;99.90
17813;DHT22;9030;50.792;8.320;2023-06-14T07:37:49;18.90;99.90
17813;DHT22;9030;50.792;8.320;2023-06-14T07:40:15;19.50;99.90
17813;DHT22;9030;50.792;8.320;2023-06-14T07:42:43;19.60;99.90
17813;DHT22;9030;50.792;8.320;2023-06-14T07:45:13;19.40;99.90
17813;DHT22;9030;50.792;8.320;2023-06-14T07:47:39;19.50;99.90
17813;DHT22;9030;50.792;8.320;2023-06-14T07:50:07;19.80;99.90
17813;DHT22;9030;50.792;8.320;2023-06-14T07:52:33;20.10;99.90
17813;DHT22;9030;50.792;8.320;2023-06-14T07:55:00;20.20;99.90
17813;DHT22;9030;50.792;8.320;2023-06-14T07:57:27;20.10;99.90
17813;DHT22;9030;50.792;8.320;2023-06-14T07:59:55;19.40;99.90
17813;DHT22;9030;50.792;8.320;2023-06-14T08:02:21;18.60;99.90
17813;DHT22;9030;50.792;8.320;2023-06-14T08:04:48;18.70;99.90
17813;DHT22;9030;50.792;8.320;2023-06-14T08:07:15;18.40;99.90
17813;DHT22;9030;50.792;8.320;2023-06-14T08:09:41;19.00;99.90
17813;DHT22;9030;50.792;8.320;2023-06-14T08:12:08;19.50;99.90
17813;DHT22;9030;50.792;8.320;2023-06-14T08:14:36;19.90;99.90
17813;DHT22;9030;50.792;8.320;2023-06-14T08:17:04;19.50;99.90
17813;DHT22;9030;50.792;8.320;2023-06-14T08:19:31;19.60;99.90
17813;DHT22;9030;50.792;8.320;2023-06-14T08:21:57;19.70;99.90
17813;DHT22;9030;50.792;8.320;2023-06-14T08:24:25;20.10;99.90
17813;DHT22;9030;50.792;8.320;2023-06-14T08:26:52;20.00;99.90
17813;DHT22;9030;50.792;8.320;2023-06-14T08:29:19;19.80;99.90
17813;DHT22;9030;50.792;8.320;2023-06-14T08:31:47;19.80;99.90
17813;DHT22;9030;50.792;8.320;2023-06-14T08:34:15;20.40;99.90
17813;DHT22;9030;50.792;8.320;2023-06-14T08:36:41;20.30;99.90
17813;DHT22;9030;50.792;8.320;2023-06-14T08:39:08;20.40;99.90
17813;DHT22;9030;50.792;8.320;2023-06-14T08:41:35;20.70;99.90
17813;DHT22;9030;50.792;8.320;2023-06-14T08:44:02;20.40;99.90
17813;DHT22;9030;50.792;8.320;2023-06-14T08:46:32;20.40;99.90
17813;DHT22;9030;50.792;8.320;2023-06-14T08:49:02;20.50;99.90
17813;DHT22;9030;50.792;8.320;2023-06-14T08:51:32;20.70;99.90
17813;DHT22;9030;50.792;8.320;2023-06-14T08:54:02;21.00;99.90
17813;DHT22;9030;50.792;8.320;2023-06-14T08:56:30;21.10;99.90
17813;DHT22;9030;50.792;8.320;2023-06-14T08:58:58;21.20;99.90
17813;DHT22;9030;50.792;8.320;2023-06-14T09:01:28;21.20;99.90
17813;DHT22;9030;50.792;8.320;2023-06-14T09:03:56;21.10;99.90
17813;DHT22;9030;50.792;8.320;2023-06-14T09:06:23;21.10;99.90
17813;DHT22;9030;50.792;8.320;2023-06-14T09:08:51;20.90;99.90
17813;DHT22;9030;50.792;8.320;2023-06-14T09:11:19;21.00;99.90
17813;DHT22;9030;50.792;8.320;2023-06-14T09:13:47;21.10;99.90
17813;DHT22;9030;50.792;8.320;2023-06-14T09:16:13;21.10;99.90
17813;DHT22;9030;50.792;8.320;2023-06-14T09:18:42;21.40;99.90
17813;DHT22;9030;50.792;8.320;2023-06-14T09:21:11;21.80;99.90
17813;DHT22;9030;50.792;8.320;2023-06-14T09:23:39;21.70;99.90
17813;DHT22;9030;50.792;8.320;2023-06-14T09:26:08;22.20;99.90
17813;DHT22;9030;50.792;8.320;2023-06-14T09:28:35;22.10;99.90
17813;DHT22;9030;50.792;8.320;2023-06-14T09:31:02;21.70;99.90
17813;DHT22;9030;50.792;8.320;2023-06-14T09:33:30;21.70;99.90
17813;DHT22;9030;50.792;8.320;2023-06-14T09:35:57;22.10;99.90
17813;DHT22;9030;50.792;8.320;2023-06-14T09:38:25;22.10;99.90
17813;DHT22;9030;50.792;8.320;2023-06-14T09:40:51;21.80;99.90
17813;DHT22;9030;50.792;8.320;2023-06-14T09:43:20;22.20;99.90
17813;DHT22;9030;50.792;8.320;2023-06-14T09:45:48;21.60;99.90
17813;DHT22;9030;50.792;8.320;2023-06-14T09:48:15;20.80;99.90
17813;DHT22;9030;50.792;8.320;2023-06-14T09:50:45;20.50;99.90
17813;DHT22;9030;50.792;8.320;2023-06-14T09:53:13;20.80;99.90
17813;DHT22;9030;50.792;8.320;2023-06-14T09:55:41;20.80;99.90
17813;DHT22;9030;50.792;8.320;2023-06-14T09:58:09;21.60;99.90
17813;DHT22;9030;50.792;8.320;2023-06-14T10:00:39;22.90;99.90
17813;DHT22;9030;50.792;8.320;2023-06-14T10:03:12;22.80;99.90
17813;DHT22;9030;50.792;8.320;2023-06-14T10:05:42;21.20;99.90
17813;DHT22;9030;50.792;8.320;2023-06-14T10:08:12;21.30;99.90
17813;DHT22;9030;50.792;8.320;2023-06-14T10:10:41;21.80;99.90
17813;DHT22;9030;50.792;8.320;2023-06-14T10:13:08;22.10;99.90
17813;DHT22;9030;50.792;8.320;2023-06-14T10:15:42;21.30;99.90
17813;DHT22;9030;50.792;8.320;2023-06-14T10:18:21;21.00;99.90
17813;DHT22;9030;50.792;8.320;2023-06-14T10:20:55;20.50;99.90
17813;DHT22;9030;50.792;8.320;2023-06-14T10:23:25;20.90;99.90
17813;DHT22;9030;50.792;8.320;2023-06-14T10:25:54;20.80;99.90
17813;DHT22;9030;50.792;8.320;2023-06-14T10:28:23;20.70;99.90
17813;DHT22;9030;50.792;8.320;2023-06-14T10:31:06;21.40;99.90
17813;DHT22;9030;50.792;8.320;2023-06-14T10:33:33;22.30;99.90
17813;DHT22;9030;50.792;8.320;2023-06-14T10:36:24;22.40;99.90
17813;DHT22;9030;50.792;8.320;2023-06-14T10:39:00;22.20;99.90
17813;DHT22;9030;50.792;8.320;2023-06-14T10:41:28;23.20;99.90
17813;DHT22;9030;50.792;8.320;2023-06-14T10:47:00;22.70;99.90
17813;DHT22;9030;50.792;8.320;2023-06-14T10:49:38;21.10;99.90
17813;DHT22;9030;50.792;8.320;2023-06-14T10:52:08;21.30;99.90
17813;DHT22;9030;50.792;8.320;2023-06-14T10:54:56;21.70;99.90
17813;DHT22;9030;50.792;8.320;2023-06-14T10:57:22;22.10;99.90
17813;DHT22;9030;50.792;8.320;2023-06-14T10:59:49;21.70;99.90
17813;DHT22;9030;50.792;8.320;2023-06-14T11:05:14;23.20;99.40
17813;DHT22;9030;50.792;8.320;2023-06-14T11:07:48;21.70;99.90
17813;DHT22;9030;50.792;8.320;2023-06-14T11:10:26;21.10;99.90
17813;DHT22;9030;50.792;8.320;2023-06-14T11:12:59;21.00;99.90
17813;DHT22;9030;50.792;8.320;2023-06-14T11:15:28;20.90;99.90
17813;DHT22;9030;50.792;8.320;2023-06-14T11:17:57;20.70;99.90
17813;DHT22;9030;50.792;8.320;2023-06-14T11:20:26;20.40;99.90
17813;DHT22;9030;50.792;8.320;2023-06-14T11:22:53;20.50;99.90
17813;DHT22;9030;50.792;8.320;2023-06-14T11:25:20;20.80;99.90
17813;DHT22;9030;50.792;8.320;2023-06-14T11:27:49;21.20;99.90
17813;DHT22;9030;50.792;8.320;2023-06-14T11:30:16;20.90;99.90
17813;DHT22;9030;50.792;8.320;2023-06-14T11:32:46;20.80;99.90
17813;DHT22;9030;50.792;8.320;2023-06-14T11:35:15;21.00;99.90
17813;DHT22;9030;50.792;8.320;2023-06-14T11:37:41;21.50;99.90
17813;DHT22;9030;50.792;8.320;2023-06-14T11:40:11;22.20;99.90
17813;DHT22;9030;50.792;8.320;2023-06-14T11:42:39;22.80;99.50
17813;DHT22;9030;50.792;8.320;2023-06-14T11:45:08;22.60;99.00
17813;DHT22;9030;50.792;8.320;2023-06-14T11:47:36;21.90;99.90
17813;DHT22;9030;50.792;8.320;2023-06-14T11:50:04;21.60;99.90
17813;DHT22;9030;50.792;8.320;2023-06-14T11:52:33;21.70;99.90
17813;DHT22;9030;50.792;8.320;2023-06-14T11:55:00;21.60;99.90
17813;DHT22;9030;50.792;8.320;2023-06-14T11:57:30;22.20;99.90
17813;DHT22;9030;50.792;8.320;2023-06-14T11:59:57;22.50;99.90
17813;DHT22;9030;50.792;8.320;2023-06-14T12:02:23;23.20;98.90
17813;DHT22;9030;50.792;8.320;2023-06-14T12:04:53;22.20;99.70
17813;DHT22;9030;50.792;8.320;2023-06-14T12:07:22;21.80;99.60
17813;DHT22;9030;50.792;8.320;2023-06-14T12:10:06;21.70;99.90
17813;DHT22;9030;50.792;8.320;2023-06-14T12:12:36;21.90;99.90
17813;DHT22;9030;50.792;8.320;2023-06-14T12:15:03;21.90;99.90
17813;DHT22;9030;50.792;8.320;2023-06-14T12:17:32;22.30;99.90
17813;DHT22;9030;50.792;8.320;2023-06-14T12:20:05;22.40;97.70
17813;DHT22;9030;50.792;8.320;2023-06-14T12:22:35;22.50;98.00
17813;DHT22;9030;50.792;8.320;2023-06-14T12:25:02;22.50;97.30
17813;DHT22;9030;50.792;8.320;2023-06-14T12:27:30;22.80;96.90
17813;DHT22;9030;50.792;8.320;2023-06-14T12:30:00;22.90;96.70
17813;DHT22;9030;50.792;8.320;2023-06-14T12:32:28;22.90;96.90
17813;DHT22;9030;50.792;8.320;2023-06-14T12:34:55;23.80;97.30
17813;DHT22;9030;50.792;8.320;2023-06-14T12:37:22;23.50;96.00
17813;DHT22;9030;50.792;8.320;2023-06-14T12:39:49;23.40;96.60
17813;DHT22;9030;50.792;8.320;2023-06-14T12:42:16;23.60;97.70
17813;DHT22;9030;50.792;8.320;2023-06-14T12:44:44;23.70;97.10
17813;DHT22;9030;50.792;8.320;2023-06-14T12:47:11;23.00;97.50
17813;DHT22;9030;50.792;8.320;2023-06-14T12:49:39;23.10;97.80
17813;DHT22;9030;50.792;8.320;2023-06-14T12:52:07;23.40;95.60
17813;DHT22;9030;50.792;8.320;2023-06-14T12:54:34;24.20;95.10
17813;DHT22;9030;50.792;8.320;2023-06-14T12:57:01;24.40;95.40
17813;DHT22;9030;50.792;8.320;2023-06-14T12:59:28;23.90;95.40
17813;DHT22;9030;50.792;8.320;2023-06-14T13:02:09;22.60;96.90
17813;DHT22;9030;50.792;8.320;2023-06-14T13:04:36;22.00;98.00
17813;DHT22;9030;50.792;8.320;2023-06-14T13:07:03;21.90;97.90
17813;DHT22;9030;50.792;8.320;2023-06-14T13:09:30;22.20;98.90
17813;DHT22;9030;50.792;8.320;2023-06-14T13:11:56;22.70;96.60
17813;DHT22;9030;50.792;8.320;2023-06-14T13:14:23;22.30;97.10
17813;DHT22;9030;50.792;8.320;2023-06-14T13:16:50;22.00;97.80
17813;DHT22;9030;50.792;8.320;2023-06-14T13:19:18;22.50;97.20
17813;DHT22;9030;50.792;8.320;2023-06-14T13:21:44;23.60;95.60
17813;DHT22;9030;50.792;8.320;2023-06-14T13:24:11;23.40;94.80
17813;DHT22;9030;50.792;8.320;2023-06-14T13:26:38;24.20;95.10
17813;DHT22;9030;50.792;8.320;2023-06-14T13:29:04;24.70;94.30
17813;DHT22;9030;50.792;8.320;2023-06-14T13:31:31;25.00;93.50
17813;DHT22;9030;50.792;8.320;2023-06-14T13:33:58;24.30;93.30
17813;DHT22;9030;50.792;8.320;2023-06-14T13:36:26;23.50;93.90
17813;DHT22;9030;50.792;8.320;2023-06-14T13:38:52;22.90;95.40
17813;DHT22;9030;50.792;8.320;2023-06-14T13:41:20;22.50;96.10
17813;DHT22;9030;50.792;8.320;2023-06-14T13:43:47;22.20;95.80
17813;DHT22;9030;50.792;8.320;2023-06-14T13:46:13;22.00;96.00
17813;DHT22;9030;50.792;8.320;2023-06-14T13:48:40;22.20;96.30
17813;DHT22;9030;50.792;8.320;2023-06-14T13:51:07;23.10;94.50
17813;DHT22;9030;50.792;8.320;2023-06-14T13:53:35;23.90;93.20
17813;DHT22;9030;50.792;8.320;2023-06-14T13:56:01;24.60;93.30
17813;DHT22;9030;50.792;8.320;2023-06-14T13:58:28;24.90;92.40
17813;DHT22;9030;50.792;8.320;2023-06-14T14:00:54;24.80;92.40
17813;DHT22;9030;50.792;8.320;2023-06-14T14:03:22;23.40;92.50
17813;DHT22;9030;50.792;8.320;2023-06-14T14:05:49;22.70;93.30
17813;DHT22;9030;50.792;8.320;2023-06-14T14:08:16;23.00;94.40
17813;DHT22;9030;50.792;8.320;2023-06-14T14:10:44;24.00;93.00
17813;DHT22;9030;50.792;8.320;2023-06-14T14:13:11;24.70;92.20
17813;DHT22;9030;50.792;8.320;2023-06-14T14:15:38;24.70;91.50
17813;DHT22;9030;50.792;8.320;2023-06-14T14:18:04;24.90;93.00
17813;DHT22;9030;50.792;8.320;2023-06-14T14:20:31;25.00;90.90
17813;DHT22;9030;50.792;8.320;2023-06-14T14:22:58;25.60;91.50
17813;DHT22;9030;50.792;8.320;2023-06-14T14:25:25;25.80;90.30
17813;DHT22;9030;50.792;8.320;2023-06-14T14:27:52;25.80;91.50
17813;DHT22;9030;50.792;8.320;2023-06-14T14:30:19;25.50;91.10
17813;DHT22;9030;50.792;8.320;2023-06-14T14:32:48;24.20;91.40
17813;DHT22;9030;50.792;8.320;2023-06-14T14:35:16;23.20;92.10
17813;DHT22;9030;50.792;8.320;2023-06-14T14:37:43;23.20;92.50
17813;DHT22;9030;50.792;8.320;2023-06-14T14:40:10;23.50;92.40
17813;DHT22;9030;50.792;8.320;2023-06-14T14:42:37;23.70;92.50
17813;DHT22;9030;50.792;8.320;2023-06-14T14:45:06;23.20;92.10
17813;DHT22;9030;50.792;8.320;2023-06-14T14:47:33;23.00;93.20
17813;DHT22;9030;50.792;8.320;2023-06-14T14:50:00;22.90;92.60
17813;DHT22;9030;50.792;8.320;2023-06-14T14:52:27;23.60;92.60
17813;DHT22;9030;50.792;8.320;2023-06-14T14:54:53;23.90;90.60
17813;DHT22;9030;50.792;8.320;2023-06-14T14:57:20;24.50;90.40
17813;DHT22;9030;50.792;8.320;2023-06-14T14:59:47;24.60;90.30
17813;DHT22;9030;50.792;8.320;2023-06-14T15:02:15;25.10;90.00
17813;DHT22;9030;50.792;8.320;2023-06-14T15:04:42;25.50;89.60
17813;DHT22;9030;50.792;8.320;2023-06-14T15:07:09;24.90;89.30
17813;DHT22;9030;50.792;8.320;2023-06-14T15:09:35;24.30;90.70
17813;DHT22;9030;50.792;8.320;2023-06-14T15:12:03;23.50;91.20
17813;DHT22;9030;50.792;8.320;2023-06-14T15:14:30;23.20;91.90
17813;DHT22;9030;50.792;8.320;2023-06-14T15:16:56;23.80;92.50
17813;DHT22;9030;50.792;8.320;2023-06-14T15:19:25;24.60;92.10
17813;DHT22;9030;50.792;8.320;2023-06-14T15:21:51;25.40;91.70
17813;DHT22;9030;50.792;8.320;2023-06-14T15:24:18;25.60;90.00
17813;DHT22;9030;50.792;8.320;2023-06-14T15:26:45;25.60;89.50
17813;DHT22;9030;50.792;8.320;2023-06-14T15:29:12;25.10;87.70
17813;DHT22;9030;50.792;8.320;2023-06-14T15:31:38;25.00;88.10
17813;DHT22;9030;50.792;8.320;2023-06-14T15:34:05;23.80;89.30
17813;DHT22;9030;50.792;8.320;2023-06-14T15:36:33;23.20;90.10
17813;DHT22;9030;50.792;8.320;2023-06-14T15:39:00;23.20;91.40
17813;DHT22;9030;50.792;8.320;2023-06-14T15:41:27;23.60;90.90
17813;DHT22;9030;50.792;8.320;2023-06-14T15:43:54;24.10;91.10
17813;DHT22;9030;50.792;8.320;2023-06-14T15:46:21;24.30;89.00
17813;DHT22;9030;50.792;8.320;2023-06-14T15:48:48;24.10;87.20
17813;DHT22;9030;50.792;8.320;2023-06-14T15:51:15;23.40;90.20
17813;DHT22;9030;50.792;8.320;2023-06-14T15:53:43;22.80;90.70
17813;DHT22;9030;50.792;8.320;2023-06-14T15:56:10;22.80;90.70